createdAt,value
2019-06-20T00:00:33.089Z,13.9
2019-06-20T00:01:33.089Z,13.6
2019-06-20T00:02:33.145Z,13.7
2019-06-20T00:03:33.171Z,13.8
2019-06-20T00:04:33.186Z,13.8
2019-06-20T00:05:33.239Z,13.6
2019-06-20T00:06:33.299Z,13.3
2019-06-20T00:07:33.426Z,13.5
2019-06-20T00:08:33.394Z,13.9
2019-06-20T00:09:33.400Z,13.8
2019-06-20T00:10:33.408Z,13.7
2019-06-20T00:11:33.456Z,13.6
2019-06-20T00:12:33.512Z,13.7
2019-06-20T00:13:33.552Z,13.6
2019-06-20T00:14:33.611Z,13.6
2019-06-20T00:15:33.663Z,13.7
2019-06-20T00:16:33.732Z,13.9
2019-06-20T00:17:33.789Z,13.9
2019-06-20T00:18:33.857Z,13.9
2019-06-20T00:19:33.810Z,13.7
2019-06-20T00:20:33.855Z,14
2019-06-20T00:21:33.825Z,13.7
2019-06-20T00:22:33.922Z,13.7
2019-06-20T00:23:33.937Z,13.9
2019-06-20T00:24:34.018Z,14.1
2019-06-20T00:25:34.033Z,14.2
2019-06-20T00:26:34.039Z,13.9
2019-06-20T00:27:34.103Z,13.8
2019-06-20T00:28:34.169Z,14
2019-06-20T00:29:34.231Z,13.9
2019-06-20T00:30:34.252Z,14
2019-06-20T00:31:34.246Z,14
2019-06-20T00:32:34.295Z,13.9
2019-06-20T00:33:34.299Z,13.8
2019-06-20T00:34:34.363Z,13.9
2019-06-20T00:35:34.408Z,13.9
2019-06-20T00:36:34.529Z,13.8
2019-06-20T00:37:34.493Z,13.9
2019-06-20T00:38:34.527Z,13.9
2019-06-20T00:39:34.586Z,13.8
2019-06-20T00:40:34.653Z,13.9
2019-06-20T00:41:34.649Z,13.9
2019-06-20T00:42:34.706Z,14.1
2019-06-20T00:43:34.728Z,14.1
2019-06-20T00:44:34.753Z,14
2019-06-20T00:45:34.762Z,13.9
2019-06-20T00:46:34.822Z,13.9
2019-06-20T00:47:34.864Z,13.9
2019-06-20T00:48:34.914Z,13.9
2019-06-20T00:49:34.887Z,13.9
2019-06-20T00:50:34.933Z,14
2019-06-20T00:51:34.983Z,14
2019-06-20T00:52:35.005Z,14
2019-06-20T00:53:35.040Z,14.1
2019-06-20T00:54:35.039Z,14.1
2019-06-20T00:55:35.053Z,14
2019-06-20T00:56:35.085Z,14.2
2019-06-20T00:57:35.160Z,14.2
2019-06-20T00:58:35.187Z,14.3
2019-06-20T00:59:35.187Z,14.3
2019-06-20T01:00:35.235Z,14.3
2019-06-20T01:01:35.252Z,14.3
2019-06-20T01:02:35.401Z,14.2
2019-06-20T01:03:35.335Z,14.3
2019-06-20T01:04:35.330Z,14.2
2019-06-20T01:05:35.364Z,14.2
2019-06-20T01:06:35.409Z,14.3
2019-06-20T01:07:35.435Z,14.3
2019-06-20T01:08:35.464Z,14.2
2019-06-20T01:09:35.481Z,14
2019-06-20T01:10:35.514Z,14.2
2019-06-20T01:11:35.524Z,14.3
2019-06-20T01:12:35.522Z,14.3
2019-06-20T01:13:35.541Z,14.3
2019-06-20T01:14:35.585Z,14.2
2019-06-20T01:15:35.571Z,14.2
2019-06-20T01:16:35.628Z,14.2
2019-06-20T01:17:35.621Z,14.3
2019-06-20T01:18:35.667Z,14.3
2019-06-20T01:19:35.655Z,14.3
2019-06-20T01:20:35.641Z,14.3
2019-06-20T01:21:35.683Z,14.3
2019-06-20T01:22:35.692Z,14.3
2019-06-20T01:23:35.714Z,14.3
2019-06-20T01:24:35.728Z,14.2
2019-06-20T01:25:35.734Z,14.3
2019-06-20T01:26:35.811Z,14.2
2019-06-20T01:27:35.769Z,14.3
2019-06-20T01:28:35.794Z,14.3
2019-06-20T01:29:35.781Z,14.3
2019-06-20T01:30:35.802Z,14.5
2019-06-20T01:31:35.812Z,14.5
2019-06-20T01:32:35.869Z,14.4
2019-06-20T01:33:35.830Z,14.4
2019-06-20T01:34:35.843Z,14.2
2019-06-20T01:35:35.860Z,14.3
2019-06-20T01:36:35.876Z,14.2
2019-06-20T01:37:35.864Z,14.2
2019-06-20T01:38:35.874Z,14.2
2019-06-20T01:39:35.862Z,14.2
2019-06-20T01:40:35.922Z,14.1
2019-06-20T01:41:35.929Z,14.2
2019-06-20T01:42:35.882Z,14.2
2019-06-20T01:43:49.355Z,14.2
2019-06-20T01:44:36.008Z,14.1
2019-06-20T01:45:35.998Z,14.1
2019-06-20T01:46:36.024Z,14.1
2019-06-20T01:47:36.067Z,14.1
2019-06-20T01:48:36.123Z,14.2
2019-06-20T01:49:36.099Z,14.2
2019-06-20T01:50:36.125Z,14.1
2019-06-20T01:51:36.093Z,14.2
2019-06-20T01:52:36.178Z,14.2
2019-06-20T01:53:36.239Z,14.2
2019-06-20T01:54:36.285Z,14.2
2019-06-20T01:55:36.311Z,14.2
2019-06-20T01:56:36.340Z,14.3
2019-06-20T01:57:36.335Z,14.3
2019-06-20T01:58:36.434Z,14.4
2019-06-20T01:59:36.447Z,14.3
2019-06-20T02:00:36.494Z,14.2
2019-06-20T02:01:36.559Z,14.2
2019-06-20T02:02:36.580Z,14.2
2019-06-20T02:03:36.599Z,14.2
2019-06-20T02:04:36.611Z,14.2
2019-06-20T02:05:36.672Z,14.2
2019-06-20T02:06:36.706Z,14.3
2019-06-20T02:07:36.694Z,14.3
2019-06-20T02:08:36.690Z,14.3
2019-06-20T02:09:36.785Z,14.3
2019-06-20T02:10:36.833Z,14.3
2019-06-20T02:11:36.881Z,14.5
2019-06-20T02:12:36.878Z,14.4
2019-06-20T02:13:36.901Z,14.3
2019-06-20T02:14:36.973Z,14.3
2019-06-20T02:15:37.006Z,14.3
2019-06-20T02:16:37.099Z,14.2
2019-06-20T02:17:37.107Z,14.2
2019-06-20T02:18:37.167Z,14.2
2019-06-20T02:19:37.265Z,14.2
2019-06-20T02:20:37.249Z,14.2
2019-06-20T02:21:37.306Z,14.2
2019-06-20T02:22:37.345Z,14.2
2019-06-20T02:23:37.394Z,14.1
2019-06-20T02:24:37.453Z,14.2
2019-06-20T02:25:37.462Z,14.2
2019-06-20T02:26:37.560Z,14.2
2019-06-20T02:27:37.568Z,14.1
2019-06-20T02:28:37.574Z,14.1
2019-06-20T02:29:37.603Z,14.1
2019-06-20T02:30:37.622Z,14.1
2019-06-20T02:31:37.712Z,14.1
2019-06-20T02:32:37.744Z,14.1
2019-06-20T02:33:37.798Z,14
2019-06-20T02:34:37.798Z,14
2019-06-20T02:35:37.820Z,14
2019-06-20T02:36:37.905Z,14
2019-06-20T02:37:37.941Z,14.1
2019-06-20T02:38:37.982Z,14.2
2019-06-20T02:39:38.042Z,14.3
2019-06-20T02:40:38.022Z,14.1
2019-06-20T02:41:38.079Z,14.2
2019-06-20T02:42:38.095Z,14.1
2019-06-20T02:43:38.142Z,14
2019-06-20T02:44:38.185Z,14.1
2019-06-20T02:45:38.243Z,14.1
2019-06-20T02:46:38.249Z,14.1
2019-06-20T02:47:38.298Z,14.1
2019-06-20T02:48:38.323Z,14.1
2019-06-20T02:49:38.359Z,14.1
2019-06-20T02:50:38.429Z,14.1
2019-06-20T02:51:38.389Z,14.1
2019-06-20T02:52:38.443Z,14.1
2019-06-20T02:53:38.468Z,14
2019-06-20T02:54:38.517Z,14.1
2019-06-20T02:55:38.539Z,14.1
2019-06-20T02:56:38.556Z,14.1
2019-06-20T02:57:38.565Z,14.1
2019-06-20T02:58:38.586Z,14.1
2019-06-20T02:59:38.639Z,14.1
2019-06-20T03:00:38.635Z,14.1
2019-06-20T03:01:38.639Z,14.1
2019-06-20T03:02:38.688Z,14.1
2019-06-20T03:03:38.721Z,14.1
2019-06-20T03:04:38.745Z,14.1
2019-06-20T03:05:38.748Z,14
2019-06-20T03:06:38.754Z,14.1
2019-06-20T03:07:38.800Z,14.1
2019-06-20T03:08:38.814Z,14.1
2019-06-20T03:09:38.825Z,14.1
2019-06-20T03:10:38.824Z,14.1
2019-06-20T03:11:38.849Z,14.2
2019-06-20T03:12:38.868Z,14.2
2019-06-20T03:13:38.905Z,14.2
2019-06-20T03:14:45.226Z,14.1
2019-06-20T03:15:38.937Z,14.1
2019-06-20T03:16:38.954Z,14.1
2019-06-20T03:17:38.961Z,14.1
2019-06-20T03:18:39.013Z,14.1
2019-06-20T03:19:39.019Z,14.3
2019-06-20T03:20:39.005Z,14.3
2019-06-20T03:21:39.036Z,14.2
2019-06-20T03:22:39.029Z,14.2
2019-06-20T03:23:39.047Z,14.2
2019-06-20T03:24:39.060Z,14.1
2019-06-20T03:25:39.128Z,14.1
2019-06-20T03:26:39.103Z,14.2
2019-06-20T03:27:39.105Z,14.3
2019-06-20T03:28:39.095Z,14.4
2019-06-20T03:29:39.129Z,14.3
2019-06-20T03:30:39.111Z,14.2
2019-06-20T03:31:39.114Z,14.3
2019-06-20T03:32:39.126Z,14.5
2019-06-20T03:33:39.147Z,14.5
2019-06-20T03:34:39.156Z,14.7
2019-06-20T03:35:39.163Z,14.6
2019-06-20T03:36:39.141Z,14.7
2019-06-20T03:37:39.147Z,14.7
2019-06-20T03:38:39.161Z,14.5
2019-06-20T03:39:39.168Z,14.5
2019-06-20T03:40:39.253Z,14.6
2019-06-20T03:41:40.338Z,14.6
2019-06-20T03:42:39.318Z,14.6
2019-06-20T03:43:39.423Z,14.6
2019-06-20T03:44:39.426Z,14.6
2019-06-20T03:45:39.515Z,14.6
2019-06-20T03:46:39.680Z,14.6
2019-06-20T03:47:39.689Z,14.6
2019-06-20T03:48:39.665Z,14.7
2019-06-20T03:49:41.905Z,14.7
2019-06-20T03:50:39.726Z,14.7
2019-06-20T03:51:39.698Z,14.7
2019-06-20T03:52:39.818Z,14.8
2019-06-20T03:53:39.799Z,14.9
2019-06-20T03:54:39.902Z,15
2019-06-20T03:55:39.916Z,14.9
2019-06-20T03:56:39.946Z,14.9
2019-06-20T03:57:39.970Z,14.8
2019-06-20T03:58:40.011Z,14.8
2019-06-20T03:59:40.071Z,14.7
2019-06-20T04:00:40.162Z,14.7
2019-06-20T04:01:40.090Z,14.7
2019-06-20T04:02:40.164Z,14.7
2019-06-20T04:03:40.261Z,14.6
2019-06-20T04:04:40.240Z,14.7
2019-06-20T04:05:40.290Z,14.8
2019-06-20T04:06:40.350Z,14.9
2019-06-20T04:07:40.433Z,15
2019-06-20T04:08:40.423Z,15
2019-06-20T04:09:40.458Z,14.9
2019-06-20T04:10:40.475Z,15
2019-06-20T04:11:40.533Z,15.1
2019-06-20T04:12:40.613Z,15
2019-06-20T04:13:40.660Z,15
2019-06-20T04:14:40.698Z,15.2
2019-06-20T04:15:40.713Z,15
2019-06-20T04:16:42.998Z,15
2019-06-20T04:17:40.823Z,15
2019-06-20T04:18:40.867Z,15.2
2019-06-20T04:19:40.897Z,15.5
2019-06-20T04:20:40.923Z,15.5
2019-06-20T04:21:40.967Z,15.5
2019-06-20T04:22:41.041Z,15.6
2019-06-20T04:23:41.056Z,15.6
2019-06-20T04:24:41.104Z,15.5
2019-06-20T04:25:41.083Z,15.4
2019-06-20T04:26:41.124Z,15.4
2019-06-20T04:27:41.160Z,15.4
2019-06-20T04:28:41.217Z,15.6
2019-06-20T04:29:41.292Z,15.3
2019-06-20T04:30:41.293Z,15.5
2019-06-20T04:31:41.341Z,15.5
2019-06-20T04:32:41.367Z,15.7
2019-06-20T04:33:41.373Z,15.8
2019-06-20T04:34:41.457Z,15.7
2019-06-20T04:35:41.467Z,15.8
2019-06-20T04:36:41.520Z,15.9
2019-06-20T04:37:41.588Z,16.5
2019-06-20T04:38:41.607Z,16.8
2019-06-20T04:39:41.629Z,16.9
2019-06-20T04:40:41.615Z,16.6
2019-06-20T04:41:41.694Z,16.2
2019-06-20T04:42:43.983Z,16
2019-06-20T04:43:41.673Z,16.1
2019-06-20T04:44:41.715Z,16.1
2019-06-20T04:45:41.773Z,16.2
2019-06-20T04:46:41.764Z,16.1
2019-06-20T04:47:41.808Z,16.2
2019-06-20T04:48:41.889Z,16.4
2019-06-20T04:49:41.869Z,16.5
2019-06-20T04:50:41.878Z,16.6
2019-06-20T04:51:41.906Z,16.9
2019-06-20T04:52:41.929Z,16.8
2019-06-20T04:53:41.981Z,16.7
2019-06-20T04:54:41.959Z,16.8
2019-06-20T04:55:42.015Z,17
2019-06-20T04:56:42.034Z,16.7
2019-06-20T04:57:42.099Z,16.2
2019-06-20T04:58:42.109Z,16.3
2019-06-20T04:59:42.165Z,16.5
2019-06-20T05:00:42.171Z,16.7
2019-06-20T05:01:42.162Z,16.9
2019-06-20T05:02:42.205Z,17.2
2019-06-20T05:03:42.188Z,17.3
2019-06-20T05:04:42.384Z,17.1
2019-06-20T05:05:42.209Z,17.2
2019-06-20T05:06:42.389Z,16.4
2019-06-20T05:07:42.218Z,16.4
2019-06-20T05:08:42.237Z,16.5
2019-06-20T05:09:42.510Z,16.5
2019-06-20T05:10:42.281Z,16.5
2019-06-20T05:11:42.292Z,16.6
2019-06-20T05:12:42.336Z,16.7
2019-06-20T05:13:42.295Z,16.2
2019-06-20T05:14:42.335Z,16.2
2019-06-20T05:15:51.822Z,16.5
2019-06-20T05:16:42.324Z,16.2
2019-06-20T05:17:43.381Z,16.4
2019-06-20T05:18:42.327Z,16.7
2019-06-20T05:19:42.404Z,16.5
2019-06-20T05:20:42.345Z,16.5
2019-06-20T05:21:42.358Z,16.1
2019-06-20T05:22:42.362Z,16.4
2019-06-20T05:23:42.334Z,16.1
2019-06-20T05:24:42.377Z,16.4
2019-06-20T05:25:42.352Z,16.3
2019-06-20T05:26:42.432Z,16.2
2019-06-20T05:27:45.865Z,16.2
2019-06-20T05:28:43.375Z,16.2
2019-06-20T05:29:42.404Z,16.2
2019-06-20T05:30:42.493Z,16
2019-06-20T05:31:49.683Z,16.1
2019-06-20T05:32:42.573Z,15.9
2019-06-20T05:33:42.554Z,16.3
2019-06-20T05:34:42.653Z,16.7
2019-06-20T05:35:42.783Z,16.4
2019-06-20T05:36:42.754Z,16.8
2019-06-20T05:37:42.811Z,16.5
2019-06-20T05:38:42.854Z,16.8
2019-06-20T05:39:42.927Z,16.6
2019-06-20T05:40:43.184Z,16.4
2019-06-20T05:41:42.965Z,16.2
2019-06-20T05:42:42.997Z,16.6
2019-06-20T05:43:43.064Z,16.7
2019-06-20T05:44:43.111Z,16.6
2019-06-20T05:45:45.121Z,16.6
2019-06-20T05:46:43.218Z,16.9
2019-06-20T05:47:43.380Z,17.1
2019-06-20T05:48:43.422Z,17.2
2019-06-20T05:49:43.363Z,17.2
2019-06-20T05:50:43.379Z,17
2019-06-20T05:51:43.345Z,16.9
2019-06-20T05:52:43.387Z,17.1
2019-06-20T05:53:43.430Z,17.3
2019-06-20T05:54:43.490Z,17.4
2019-06-20T05:55:43.463Z,17.4
2019-06-20T05:56:43.656Z,17.4
2019-06-20T05:57:43.595Z,17.1
2019-06-20T05:58:43.637Z,17.4
2019-06-20T05:59:43.715Z,17
2019-06-20T06:00:43.739Z,17.1
2019-06-20T06:01:43.805Z,16.9
2019-06-20T06:02:43.847Z,17
2019-06-20T06:03:43.840Z,16.7
2019-06-20T06:04:43.949Z,16.9
2019-06-20T06:05:43.903Z,17
2019-06-20T06:06:43.966Z,17.1
2019-06-20T06:07:44.042Z,17.3
2019-06-20T06:08:44.049Z,17.3
2019-06-20T06:09:45.536Z,17
2019-06-20T06:10:44.218Z,17.1
2019-06-20T06:11:44.194Z,16.8
2019-06-20T06:12:45.196Z,17
2019-06-20T06:13:44.242Z,16.9
2019-06-20T06:14:44.270Z,16.7
2019-06-20T06:15:44.277Z,17.1
2019-06-20T06:16:44.402Z,17.2
2019-06-20T06:17:44.447Z,16.9
2019-06-20T06:18:44.453Z,17
2019-06-20T06:19:44.495Z,17.1
2019-06-20T06:20:44.988Z,16.9
2019-06-20T06:21:44.553Z,17
2019-06-20T06:22:44.922Z,17
2019-06-20T06:23:44.696Z,16.9
2019-06-20T06:24:44.728Z,17.1
2019-06-20T06:25:44.854Z,17.3
2019-06-20T06:26:44.726Z,17.6
2019-06-20T06:27:44.808Z,17.3
2019-06-20T06:28:44.821Z,17.5
2019-06-20T06:29:44.874Z,17.5
2019-06-20T06:30:44.907Z,17.4
2019-06-20T06:31:44.932Z,16.9
2019-06-20T06:32:44.981Z,17.2
2019-06-20T06:33:45.087Z,17.4
2019-06-20T06:34:45.044Z,17.5
2019-06-20T06:35:45.057Z,17.6
2019-06-20T06:36:45.067Z,17.5
2019-06-20T06:37:45.085Z,17.4
2019-06-20T06:38:45.158Z,16.4
2019-06-20T06:39:45.162Z,16.5
2019-06-20T06:40:45.220Z,16.2
2019-06-20T06:41:45.249Z,16.5
2019-06-20T06:42:45.261Z,17
2019-06-20T06:43:45.264Z,17.5
2019-06-20T06:44:45.276Z,17.3
2019-06-20T06:45:45.332Z,17.3
2019-06-20T06:46:52.941Z,17.4
2019-06-20T06:47:45.352Z,17.5
2019-06-20T06:48:45.407Z,17.3
2019-06-20T06:49:45.397Z,17.4
2019-06-20T06:50:45.415Z,18
2019-06-20T06:51:45.422Z,18
2019-06-20T06:52:45.464Z,17.8
2019-06-20T06:53:45.446Z,17.6
2019-06-20T06:54:45.500Z,17.5
2019-06-20T06:55:45.514Z,17.4
2019-06-20T06:56:45.618Z,17.7
2019-06-20T06:57:45.583Z,18
2019-06-20T06:58:45.575Z,17.9
2019-06-20T06:59:45.609Z,17.8
2019-06-20T07:00:45.609Z,17.8
2019-06-20T07:01:45.662Z,17.4
2019-06-20T07:02:45.658Z,17.7
2019-06-20T07:03:45.658Z,17.6
2019-06-20T07:04:45.677Z,17.4
2019-06-20T07:05:45.715Z,17.3
2019-06-20T07:06:45.707Z,17
2019-06-20T07:07:45.728Z,17.1
2019-06-20T07:08:45.721Z,17.3
2019-06-20T07:09:45.717Z,16.8
2019-06-20T07:10:45.725Z,16.8
2019-06-20T07:11:45.752Z,16.6
2019-06-20T07:12:45.865Z,16.2
2019-06-20T07:13:45.785Z,16.4
2019-06-20T07:14:45.767Z,16.7
2019-06-20T07:15:45.894Z,16.9
2019-06-20T07:16:59.390Z,17.4
2019-06-20T07:17:46.855Z,18
2019-06-20T07:18:45.808Z,18.2
2019-06-20T07:19:45.807Z,18
2019-06-20T07:20:45.787Z,17.8
2019-06-20T07:21:45.846Z,17.4
2019-06-20T07:22:45.995Z,17.4
2019-06-20T07:23:45.964Z,17.5
2019-06-20T07:24:46.061Z,16.6
2019-06-20T07:25:46.113Z,17.2
2019-06-20T07:26:46.120Z,17.3
2019-06-20T07:27:47.995Z,17.4
2019-06-20T07:28:46.175Z,17.5
2019-06-20T07:29:46.286Z,17.2
2019-06-20T07:30:46.456Z,17
2019-06-20T07:31:46.561Z,16.8
2019-06-20T07:32:46.451Z,17
2019-06-20T07:33:46.486Z,17.3
2019-06-20T07:34:46.541Z,17.5
2019-06-20T07:35:46.601Z,17.4
2019-06-20T07:36:46.636Z,17
2019-06-20T07:37:46.710Z,17.1
2019-06-20T07:38:46.761Z,17.4
2019-06-20T07:39:46.763Z,17.5
2019-06-20T07:40:46.796Z,17.5
2019-06-20T07:41:46.834Z,17.5
2019-06-20T07:42:46.870Z,17.6
2019-06-20T07:43:46.909Z,17.4
2019-06-20T07:44:46.961Z,17.4
2019-06-20T07:46:01.381Z,17.9
2019-06-20T07:46:47.054Z,17.7
2019-06-20T07:47:47.076Z,17.5
2019-06-20T07:48:47.162Z,18
2019-06-20T07:49:47.210Z,17
2019-06-20T07:50:47.274Z,17.1
2019-06-20T07:51:47.307Z,16.9
2019-06-20T07:53:01.197Z,17.1
2019-06-20T07:53:47.404Z,16.9
2019-06-20T07:54:47.450Z,16.4
2019-06-20T07:55:47.553Z,16.4
2019-06-20T07:56:47.699Z,16.6
2019-06-20T07:57:47.590Z,16.7
2019-06-20T07:58:47.632Z,16.3
2019-06-20T07:59:47.682Z,16.3
2019-06-20T08:00:47.701Z,16.7
2019-06-20T08:01:47.772Z,16.1
2019-06-20T08:02:47.777Z,15.9
2019-06-20T08:03:47.888Z,16.1
2019-06-20T08:04:47.852Z,15.7
2019-06-20T08:05:47.883Z,15.6
2019-06-20T08:06:47.940Z,15.8
2019-06-20T08:07:48.033Z,16.3
2019-06-20T08:08:48.069Z,16.4
2019-06-20T08:09:48.070Z,16.6
2019-06-20T08:10:48.121Z,16.7
2019-06-20T08:11:49.126Z,16.5
2019-06-20T08:12:48.117Z,16.6
2019-06-20T08:13:48.168Z,16.8
2019-06-20T08:14:48.220Z,16.3
2019-06-20T08:15:48.245Z,16.8
2019-06-20T08:16:48.358Z,16.9
2019-06-20T08:17:48.351Z,17.2
2019-06-20T08:18:48.349Z,17.3
2019-06-20T08:19:48.379Z,17.4
2019-06-20T08:20:48.437Z,17.7
2019-06-20T08:21:48.493Z,17.9
2019-06-20T08:22:48.520Z,17.7
2019-06-20T08:23:48.523Z,17.5
2019-06-20T08:24:48.567Z,17.6
2019-06-20T08:25:48.582Z,18.1
2019-06-20T08:26:48.688Z,18.1
2019-06-20T08:27:48.681Z,18.2
2019-06-20T08:28:48.744Z,18.1
2019-06-20T08:29:48.748Z,18
2019-06-20T08:30:48.792Z,17.7
2019-06-20T08:31:48.826Z,17.7
2019-06-20T08:32:48.778Z,17.1
2019-06-20T08:33:48.806Z,16.6
2019-06-20T08:34:48.853Z,17.3
2019-06-20T08:35:48.930Z,17.6
2019-06-20T08:36:48.920Z,17.7
2019-06-20T08:37:48.945Z,17.9
2019-06-20T08:38:48.971Z,17.6
2019-06-20T08:39:49.039Z,17.3
2019-06-20T08:40:49.061Z,17.7
2019-06-20T08:41:49.060Z,18
2019-06-20T08:42:49.094Z,17.5
2019-06-20T08:43:49.158Z,17.5
2019-06-20T08:44:49.192Z,17.7
2019-06-20T08:45:49.167Z,17.5
2019-06-20T08:46:49.218Z,17.5
2019-06-20T08:47:49.263Z,17.6
2019-06-20T08:48:49.256Z,17.6
2019-06-20T08:49:49.287Z,17.2
2019-06-20T08:50:49.311Z,17.7
2019-06-20T08:51:49.318Z,17.4
2019-06-20T08:52:49.368Z,16.8
2019-06-20T08:53:49.360Z,17
2019-06-20T08:54:49.360Z,17.5
2019-06-20T08:55:49.494Z,17.8
2019-06-20T08:56:49.438Z,18.3
2019-06-20T08:57:49.421Z,17.9
2019-06-20T08:58:49.446Z,17.8
2019-06-20T08:59:49.437Z,17.8
2019-06-20T09:00:49.543Z,17.7
2019-06-20T09:01:49.552Z,17.9
2019-06-20T09:02:49.560Z,18
2019-06-20T09:03:49.521Z,17.9
2019-06-20T09:04:49.521Z,17.9
2019-06-20T09:05:49.617Z,18
2019-06-20T09:06:50.013Z,18
2019-06-20T09:07:49.602Z,18
2019-06-20T09:08:49.597Z,18.1
2019-06-20T09:09:49.577Z,18.1
2019-06-20T09:10:49.676Z,18
2019-06-20T09:11:49.637Z,17.7
2019-06-20T09:12:49.596Z,18.2
2019-06-20T09:13:49.612Z,18.5
2019-06-20T09:14:52.383Z,18.7
2019-06-20T09:15:49.619Z,18.4
2019-06-20T09:16:49.598Z,18.6
2019-06-20T09:17:49.671Z,18.6
2019-06-20T09:18:49.730Z,17.8
2019-06-20T09:19:49.768Z,18
2019-06-20T09:20:49.831Z,18.7
2019-06-20T09:21:49.826Z,18.7
2019-06-20T09:22:49.910Z,18.4
2019-06-20T09:23:52.342Z,18
2019-06-20T09:24:50.004Z,18.2
2019-06-20T09:25:50.860Z,18.3
2019-06-20T09:26:51.115Z,18.1
2019-06-20T09:27:50.178Z,18.3
2019-06-20T09:28:50.925Z,18.5
2019-06-20T09:29:51.552Z,18.8
2019-06-20T09:30:50.448Z,18.8
2019-06-20T09:31:52.442Z,19.2
2019-06-20T09:32:52.184Z,18.7
2019-06-20T09:33:52.076Z,18.9
2019-06-20T09:34:51.769Z,18.8
2019-06-20T09:35:52.129Z,18.6
2019-06-20T09:36:51.914Z,19.2
2019-06-20T09:37:50.847Z,19.2
2019-06-20T09:38:52.067Z,19.1
2019-06-20T09:39:52.008Z,18.7
2019-06-20T09:40:51.789Z,19.1
2019-06-20T09:41:51.512Z,18.5
2019-06-20T09:42:51.633Z,18.4
2019-06-20T09:43:51.417Z,18.4
2019-06-20T09:44:51.403Z,17.8
2019-06-20T09:45:52.536Z,17.8
2019-06-20T09:46:52.310Z,18.1
2019-06-20T09:47:52.176Z,18.7
2019-06-20T09:48:52.709Z,18.2
2019-06-20T09:49:54.049Z,17.9
2019-06-20T09:50:52.857Z,18.3
2019-06-20T09:51:52.139Z,17.7
2019-06-20T09:52:51.498Z,16.9
2019-06-20T09:53:51.846Z,16.6
2019-06-20T09:54:51.704Z,16.9
2019-06-20T09:55:51.771Z,18.5
2019-06-20T09:56:53.445Z,17.1
2019-06-20T09:57:51.992Z,16.8
2019-06-20T09:58:51.568Z,17.8
2019-06-20T10:00:00.218Z,17.5
2019-06-20T10:00:52.770Z,16.6
2019-06-20T10:01:53.374Z,17.7
2019-06-20T10:02:52.376Z,17.7
2019-06-20T10:03:52.427Z,17.3
2019-06-20T10:04:52.344Z,16.7
2019-06-20T10:05:52.428Z,16.8
2019-06-20T10:06:52.291Z,16.9
2019-06-20T10:07:52.248Z,16.1
2019-06-20T10:08:52.335Z,17
2019-06-20T10:09:52.065Z,17.9
2019-06-20T10:10:52.394Z,16.4
2019-06-20T10:11:52.029Z,17.6
2019-06-20T10:12:52.050Z,18.6
2019-06-20T10:13:52.250Z,17.7
2019-06-20T10:14:52.141Z,17.5
2019-06-20T10:15:53.466Z,17.8
2019-06-20T10:16:54.032Z,18.1
2019-06-20T10:17:52.261Z,17.9
2019-06-20T10:18:52.427Z,16.8
2019-06-20T10:19:52.350Z,17.5
2019-06-20T10:20:53.064Z,17.7
2019-06-20T10:21:53.771Z,17
2019-06-20T10:22:53.022Z,17.8
2019-06-20T10:23:53.711Z,17.5
2019-06-20T10:24:53.514Z,17.1
2019-06-20T10:25:53.652Z,16.7
2019-06-20T10:26:53.318Z,17.6
2019-06-20T10:27:53.403Z,18.1
2019-06-20T10:28:54.836Z,16.1
2019-06-20T10:29:53.483Z,16.4
2019-06-20T10:30:53.398Z,15
2019-06-20T10:31:53.148Z,15.1
2019-06-20T10:32:53.165Z,15.3
2019-06-20T10:33:52.708Z,16.3
2019-06-20T10:34:53.768Z,15.8
2019-06-20T10:35:52.794Z,16.4
2019-06-20T10:36:52.766Z,15.5
2019-06-20T10:37:53.131Z,15.3
2019-06-20T10:38:52.852Z,16.6
2019-06-20T10:39:52.856Z,15.7
2019-06-20T10:40:53.397Z,16.1
2019-06-20T10:41:52.914Z,15.5
2019-06-20T10:42:53.226Z,15.1
2019-06-20T10:43:52.971Z,15.1
2019-06-20T10:44:52.992Z,14.8
2019-06-20T10:45:53.053Z,14.7
2019-06-20T10:46:53.073Z,15.3
2019-06-20T10:47:53.208Z,15.3
2019-06-20T10:48:53.075Z,15
2019-06-20T10:49:53.114Z,14.6
2019-06-20T10:50:53.127Z,15
2019-06-20T10:51:53.182Z,14.1
2019-06-20T10:52:53.161Z,14.2
2019-06-20T10:53:53.419Z,14.1
2019-06-20T10:54:53.189Z,15
2019-06-20T10:55:53.216Z,15
2019-06-20T10:56:53.269Z,15.2
2019-06-20T10:57:53.222Z,15.4
2019-06-20T10:58:53.243Z,15.1
2019-06-20T10:59:53.300Z,14.2
2019-06-20T11:00:53.980Z,14.8
2019-06-20T11:01:53.426Z,15.4
2019-06-20T11:02:53.548Z,14.9
2019-06-20T11:03:53.458Z,15.8
2019-06-20T11:04:53.423Z,15.5
2019-06-20T11:05:53.432Z,15.6
2019-06-20T11:06:53.459Z,16.3
2019-06-20T11:07:53.356Z,15.1
2019-06-20T11:08:54.350Z,16.1
2019-06-20T11:09:53.406Z,15.9
2019-06-20T11:10:55.937Z,16.6
2019-06-20T11:11:53.425Z,16.5
2019-06-20T11:12:56.107Z,15.3
2019-06-20T11:13:53.573Z,15.9
2019-06-20T11:14:53.358Z,15.4
2019-06-20T11:15:55.941Z,16
2019-06-20T11:16:53.354Z,16.5
2019-06-20T11:17:56.274Z,16.6
2019-06-20T11:18:53.458Z,15.6
2019-06-20T11:19:53.436Z,15
2019-06-20T11:20:53.504Z,15.9
2019-06-20T11:21:53.538Z,15.8
2019-06-20T11:22:53.794Z,14.8
2019-06-20T11:23:53.665Z,15.4
2019-06-20T11:24:53.694Z,15.9
2019-06-20T11:25:53.726Z,15.6
2019-06-20T11:26:53.775Z,15.6
2019-06-20T11:27:53.814Z,15.6
2019-06-20T11:28:53.868Z,14.8
2019-06-20T11:29:53.891Z,14.8
2019-06-20T11:31:00.039Z,15.6
2019-06-20T11:31:54.031Z,15.6
2019-06-20T11:32:54.068Z,16.2
2019-06-20T11:33:54.099Z,15.9
2019-06-20T11:34:54.134Z,15.8
2019-06-20T11:35:54.229Z,14.8
2019-06-20T11:36:54.312Z,15.3
2019-06-20T11:37:54.313Z,15.4
2019-06-20T11:38:54.284Z,15.1
2019-06-20T11:39:54.347Z,16.7
2019-06-20T11:40:54.407Z,16.2
2019-06-20T11:41:54.477Z,15.3
2019-06-20T11:42:54.490Z,15.3
2019-06-20T11:43:54.554Z,16
2019-06-20T11:44:54.624Z,15.4
2019-06-20T11:45:54.656Z,15.8
2019-06-20T11:46:54.745Z,15.4
2019-06-20T11:47:54.794Z,15.9
2019-06-20T11:48:54.813Z,15.5
2019-06-20T11:49:55.103Z,15.8
2019-06-20T11:50:54.871Z,15.7
2019-06-20T11:51:55.065Z,15.4
2019-06-20T11:52:55.005Z,14.7
2019-06-20T11:53:55.030Z,15.4
2019-06-20T11:54:55.044Z,16
2019-06-20T11:55:55.105Z,15.1
2019-06-20T11:56:55.206Z,15.7
2019-06-20T11:57:55.206Z,14.6
2019-06-20T11:58:55.241Z,14.7
2019-06-20T11:59:55.928Z,15
2019-06-20T12:01:03.391Z,15.6
2019-06-20T12:01:55.365Z,15.2
2019-06-20T12:02:55.408Z,15.4
2019-06-20T12:03:55.437Z,15.4
2019-06-20T12:04:55.495Z,15.2
2019-06-20T12:05:55.538Z,14.9
2019-06-20T12:06:55.602Z,14.8
2019-06-20T12:07:55.620Z,15
2019-06-20T12:08:55.668Z,15.2
2019-06-20T12:09:55.627Z,14.7
2019-06-20T12:10:55.640Z,14.8
2019-06-20T12:11:55.724Z,15.1
2019-06-20T12:12:55.769Z,15.2
2019-06-20T12:13:55.771Z,15.2
2019-06-20T12:14:55.824Z,15.1
2019-06-20T12:15:55.835Z,15.4
2019-06-20T12:16:55.877Z,15.2
2019-06-20T12:17:55.949Z,15.2
2019-06-20T12:18:56.053Z,15.1
2019-06-20T12:19:55.995Z,15.2
2019-06-20T12:20:56.040Z,15.5
2019-06-20T12:21:56.043Z,15.6
2019-06-20T12:22:56.063Z,15.8
2019-06-20T12:23:56.092Z,16.1
2019-06-20T12:24:56.102Z,16.5
2019-06-20T12:25:56.199Z,16.3
2019-06-20T12:26:56.179Z,16.2
2019-06-20T12:27:56.227Z,16.7
2019-06-20T12:28:56.250Z,17
2019-06-20T12:29:56.269Z,16.5
2019-06-20T12:30:56.306Z,16.3
2019-06-20T12:31:56.407Z,16.3
2019-06-20T12:32:56.328Z,16.5
2019-06-20T12:33:56.341Z,16.4
2019-06-20T12:34:56.416Z,15.9
2019-06-20T12:35:56.384Z,15.9
2019-06-20T12:36:56.387Z,16.1
2019-06-20T12:37:56.456Z,16.6
2019-06-20T12:38:56.437Z,16.5
2019-06-20T12:39:56.464Z,16.5
2019-06-20T12:40:56.457Z,16.6
2019-06-20T12:41:56.501Z,16.6
2019-06-20T12:42:59.662Z,16
2019-06-20T12:43:56.600Z,16.4
2019-06-20T12:44:56.559Z,16.5
2019-06-20T12:45:56.587Z,16.7
2019-06-20T12:46:56.652Z,16.6
2019-06-20T12:47:56.666Z,16.8
2019-06-20T12:48:56.682Z,16.8
2019-06-20T12:49:56.652Z,16.9
2019-06-20T12:50:56.688Z,17.1
2019-06-20T12:51:56.693Z,17.2
2019-06-20T12:52:56.784Z,17.2
2019-06-20T12:53:57.774Z,17.2
2019-06-20T12:54:56.746Z,17.3
2019-06-20T12:55:56.783Z,17.3
2019-06-20T12:56:56.748Z,17.4
2019-06-20T12:57:56.771Z,17.4
2019-06-20T12:58:56.826Z,17.3
2019-06-20T12:59:56.806Z,17.4
2019-06-20T13:00:56.849Z,17.5
2019-06-20T13:01:56.799Z,17.3
2019-06-20T13:02:56.809Z,17.2
2019-06-20T13:03:56.792Z,17.2
2019-06-20T13:04:56.830Z,17.5
2019-06-20T13:05:56.812Z,17.3
2019-06-20T13:06:56.864Z,17.5
2019-06-20T13:07:56.813Z,17.8
2019-06-20T13:08:56.831Z,18.4
2019-06-20T13:09:56.836Z,17.8
2019-06-20T13:10:56.818Z,18.2
2019-06-20T13:11:56.915Z,18.3
2019-06-20T13:12:56.933Z,18.3
2019-06-20T13:13:57.025Z,18.7
2019-06-20T13:14:57.024Z,19.2
2019-06-20T13:15:57.106Z,19.2
2019-06-20T13:16:57.109Z,19.5
2019-06-20T13:17:57.117Z,19.1
2019-06-20T13:18:57.124Z,18.8
2019-06-20T13:19:57.189Z,19.5
2019-06-20T13:20:57.257Z,19.5
2019-06-20T13:21:57.299Z,19.7
2019-06-20T13:22:57.385Z,20
2019-06-20T13:23:57.376Z,20